Palo Verde (357) Station Data

Red Flag Warning: No
Fire Weather Zone: 250
SDGE Region: Eastern
Lat/Lon: 32.813/-116.734

Observations

Time Wind Speed/Gust Temp(F) RH Fuel Moist Fuel Temp(F) Dewpt(F) Tmax(F) Tmin(F) Accum Precip 10-min Precip SL Press(mb)
5/24 8:30am 168 2 G 4 71° 40% - - 45° 72.1° 57° - - -
5/24 8:20am 47 1 G 4 70° 42% - - 46° 70.9° 57° - - -
5/24 8:10am 56 2 G 5 66° 48% - - 46° 68° 57° - - -
5/24 8:00am 83 1 G 3 66° 49% - - 46° 66.1° 57° - - -
5/24 7:50am 78 1 G 4 64° 51% - - 45° 65.7° 57° - - -
5/24 7:40am 86 1 G 3 62° 56% - - 46° 65.3° 57° - - -
5/24 7:30am 121 1 G 4 61° 58% - - 46° 65.3° 57° - - -
5/24 7:20am 93 4 G 6 60° 60% - - 46° 65.3° 57° - - -
5/24 7:10am 88 3 G 5 59° 63% - - 47° 65.3° 57° - - -
5/24 6:50am 245 3 G 11 58° 63% - - 45° 65.3° 57° - - -
5/24 6:40am 234 3 G 11 61° 44% - - 39° 65.3° 58.7° - - -
5/24 6:30am 301 2 G 3 63° 36% - - 35° 65.3° 58.7° - - -
5/24 6:20am 6 1 G 3 64° 34% - - 35° 65.3° 58.7° - - -
5/24 6:10am 50 3 G 6 64° 33% - - 34° 65.3° 58.7° - - -
5/24 6:00am 57 4 G 7 63° 34% - - 34° 65.3° 58.7° - - -
5/24 5:50am 67 3 G 6 63° 34% - - 34° 65.3° 58.7° - - -
5/24 5:40am 72 3 G 6 63° 34% - - 34° 65.3° 58.7° - - -
5/24 5:30am 66 2 G 4 63° 34% - - 34° 65.3° 58.7° - - -
5/24 5:20am 64 2 G 6 63° 33% - - 34° 65.3° 58.7° - - -
5/24 5:10am 64 3 G 6 63° 35% - - 34° 65.3° 58.7° - - -
5/24 5:00am 58 4 G 7 62° 37% - - 35° 65.3° 58.7° - - -
5/24 4:50am 51 4 G 7 62° 39% - - 37° 65.3° 58.7° - - -
5/24 4:40am 66 3 G 7 60° 44% - - 38° 65.3° 58.7° - - -
5/24 4:30am 39 0 G 3 59° 47% - - 39° 65.3° 58.7° - - -
5/24 4:20am 48 2 G 5 60° 46% - - 39° 65.3° 58.8° - - -
5/24 4:10am 76 2 G 3 60° 45% - - 39° 65.3° 58.8° - - -
5/24 4:00am 64 1 G 3 60° 47% - - 40° 65.3° 58.8° - - -
5/24 3:50am 114 0 G 1 60° 49% - - 40° 65.3° 58.8° - - -
5/24 3:40am 360 1 G 2 59° 49% - - 40° 65.3° 58.8° - - -
5/24 3:30am 47 3 G 7 62° 43% - - 39° 65.3° 60.8° - - -
5/24 3:20am 65 3 G 5 62° 43% - - 39° 65.3° 61.7° - - -
5/24 3:10am 57 1 G 4 62° 43% - - 40° 65.3° 61.7° - - -
5/24 3:00am 72 1 G 3 63° 42% - - 40° 65.3° 62.1° - - -
5/24 2:50am 61 3 G 5 64° 41% - - 39° 65.3° 62.1° - - -
5/24 2:40am 66 4 G 7 64° 40% - - 39° 65.3° 62.1° - - -
5/24 2:30am 69 5 G 7 63° 42% - - 40° 65.3° 62.1° - - -
5/24 2:20am 76 4 G 7 64° 42% - - 40° 65.3° 62.1° - - -
5/24 2:10am 59 4 G 6 64° 43% - - 41° 65.3° 62.1° - - -
5/24 2:00am 49 3 G 5 63° 45% - - 42° 65.3° 62.1° - - -
5/24 1:50am 49 2 G 3 64° 45% - - 42° 65.3° 62.1° - - -
5/24 1:40am 60 2 G 5 64° 45% - - 42° 65.3° 62.1° - - -
5/24 1:30am 70 1 G 3 64° 44% - - 42° 65.3° 62.1° - - -
5/24 1:20am 63 3 G 6 65° 42% - - 42° 65.3° 62.1° - - -
5/24 1:10am 66 3 G 6 65° 43% - - 42° 65.3° 62.1° - - -
5/24 1:00am 71 4 G 6 64° 46% - - 43° 64.3° 62.1° - - -
5/24 12:50am 62 2 G 4 63° 49% - - 44° 64° 62.1° - - -
5/24 12:40am 51 2 G 5 63° 53% - - 45° 63.1° 62.1° - - -
5/24 12:30am 63 4 G 6 63° 54% - - 46° 63° 62.1° - - -
5/24 12:20am 72 5 G 7 62° 57% - - 47° 63° 62.1° - - -
5/24 12:10am 70 3 G 4 63° 58% - - 47° 63° 62.2° - - -
5/24 12:00am 47 0 G 2 62° 64% - - 50° 89.7° 59.7° - - -
5/23 11:50pm 34 1 G 2 63° 65% - - 51° 89.7° 59.7° - - -
5/23 11:40pm 35 2 G 5 64° 57% - - 48° 89.7° 59.7° - - -
5/23 11:30pm 72 3 G 6 64° 56% - - 48° 89.7° 59.7° - - -
5/23 11:20pm 78 1 G 3 64° 59% - - 50° 89.7° 59.7° - - -
5/23 11:10pm 65 3 G 5 65° 58% - - 50° 89.7° 59.7° - - -
5/23 11:00pm 68 4 G 5 65° 60% - - 51° 89.7° 59.7° - - -
5/23 10:50pm 69 3 G 5 64° 64% - - 52° 89.7° 59.7° - - -
5/23 10:40pm 75 3 G 5 64° 66% - - 53° 89.7° 59.7° - - -
5/23 10:30pm 72 2 G 4 64° 66% - - 53° 89.7° 59.7° - - -
5/23 10:20pm 0 0 G 1 65° 65% - - 53° 89.7° 59.7° - - -
5/23 10:10pm 41 1 G 4 66° 63% - - 53° 89.7° 59.7° - - -
5/23 10:00pm 67 4 G 7 66° 63% - - 53° 89.7° 59.7° - - -
5/23 9:50pm 68 4 G 6 66° 64% - - 53° 89.7° 59.7° - - -
5/23 9:40pm 70 3 G 5 66° 65% - - 54° 89.7° 59.7° - - -
5/23 9:30pm 76 3 G 5 66° 65% - - 54° 89.7° 59.7° - - -
5/23 9:20pm 85 3 G 4 67° 64% - - 55° 89.7° 59.7° - - -
5/23 9:10pm 84 3 G 4 68° 63% - - 54° 89.7° 59.7° - - -
5/23 9:00pm 83 2 G 3 68° 61% - - 54° 89.7° 59.7° - - -
5/23 8:50pm 86 2 G 3 69° 57% - - 53° 89.7° 59.7° - - -
5/23 8:40pm 85 0 G 3 70° 55% - - 53° 89.7° 59.7° - - -
5/23 8:30pm 69 0 G 1 70° 54% - - 53° 89.7° 59.7° - - -
5/23 8:20pm 113 1 G 2 71° 52% - - 52° 89.7° 59.7° - - -
5/23 8:10pm 144 1 G 3 71° 51% - - 52° 89.7° 59.7° - - -
5/23 8:00pm 199 0 G 2 72° 50% - - 53° 89.7° 59.7° - - -
5/23 7:50pm 203 1 G 2 74° 47% - - 52° 89.7° 59.7° - - -
5/23 7:40pm 99 1 G 2 74° 45% - - 52° 89.7° 59.7° - - -
5/23 7:30pm 117 1 G 2 75° 44% - - 52° 89.7° 59.7° - - -
5/23 7:20pm 195 1 G 3 76° 44% - - 52° 89.7° 59.7° - - -
5/23 7:10pm 205 3 G 5 76° 43% - - 52° 89.7° 59.7° - - -
5/23 7:00pm 199 4 G 8 76° 43% - - 52° 89.7° 59.7° - - -
5/23 6:50pm 213 4 G 8 76° 43% - - 51° 89.7° 59.7° - - -
5/23 6:40pm 209 6 G 11 76° 42% - - 51° 89.7° 59.7° - - -
5/23 6:30pm 208 8 G 14 77° 40% - - 51° 89.7° 59.7° - - -
5/23 6:20pm 205 8 G 13 78° 37% - - 50° 89.7° 59.7° - - -
5/23 6:10pm 209 8 G 13 80° 34% - - 49° 89.7° 59.7° - - -
5/23 6:00pm 214 7 G 11 82° 32% - - 49° 89.7° 59.7° - - -
5/23 5:50pm 236 6 G 11 83° 30% - - 49° 89.7° 59.7° - - -
5/23 5:40pm 254 8 G 13 84° 30% - - 49° 89.7° 59.7° - - -
5/23 5:30pm 250 6 G 12 84° 30% - - 49° 89.7° 59.7° - - -
5/23 5:20pm 256 6 G 11 85° 30% - - 50° 89.7° 59.7° - - -
5/23 5:10pm 251 5 G 10 84° 31% - - 50° 89.7° 59.7° - - -
5/23 5:00pm 243 6 G 10 84° 31% - - 50° 89.7° 59.7° - - -
5/23 4:50pm 242 6 G 10 83° 30% - - 49° 89.7° 59.7° - - -
5/23 4:40pm 234 6 G 9 83° 29% - - 47° 89.7° 59.7° - - -
5/23 4:30pm 250 6 G 10 83° 28% - - 46° 89.7° 59.7° - - -
5/23 4:20pm 266 7 G 11 83° 25% - - 44° 89.7° 59.7° - - -
5/23 4:10pm 274 6 G 11 83° 27% - - 45° 89.7° 59.7° - - -
5/23 4:00pm 255 6 G 10 82° 31% - - 48° 89.7° 59.7° - - -
5/23 3:50pm 245 6 G 12 82° 31% - - 49° 89.7° 59.7° - - -
5/23 3:40pm 240 7 G 11 82° 32% - - 49° 89.7° 59.7° - - -
5/23 3:30pm 254 5 G 11 82° 35% - - 52° 89.7° 59.7° - - -
5/23 3:20pm 231 5 G 10 80° 40% - - 54° 89.7° 59.7° - - -
5/23 3:10pm 243 7 G 12 79° 42% - - 54° 89.7° 59.7° - - -
5/23 3:00pm 232 8 G 13 80° 41% - - 54° 89.7° 59.7° - - -
5/23 2:50pm 227 8 G 15 79° 42% - - 55° 89.7° 59.7° - - -
5/23 2:40pm 247 8 G 14 79° 42% - - 54° 89.7° 59.7° - - -
5/23 2:30pm 245 8 G 11 79° 43% - - 54° 89.7° 59.7° - - -
5/23 2:20pm 269 8 G 11 79° 42% - - 54° 89.7° 59.7° - - -
5/23 2:10pm 246 7 G 14 79° 42% - - 55° 89.7° 59.7° - - -
5/23 2:00pm 235 7 G 12 80° 41% - - 55° 89.7° 59.7° - - -
5/23 1:50pm 253 8 G 12 80° 40% - - 54° 89.7° 59.7° - - -
5/23 1:40pm 238 7 G 12 81° 39% - - 54° 89.7° 59.7° - - -
5/23 1:30pm 234 7 G 13 81° 39% - - 54° 89.7° 59.7° - - -
5/23 1:20pm 229 7 G 11 81° 40% - - 54° 89.7° 59.7° - - -
5/23 1:10pm 237 7 G 11 81° 39% - - 54° 89.7° 59.7° - - -
5/23 1:00pm 223 8 G 12 81° 39% - - 54° 89.7° 59.7° - - -
5/23 12:50pm 226 9 G 17 82° 38% - - 53° 89.7° 59.7° - - -
5/23 12:40pm 230 9 G 15 84° 34% - - 52° 89.7° 59.7° - - -
5/23 12:30pm 225 9 G 15 85° 29% - - 50° 89.7° 59.7° - - -
5/23 12:20pm 255 7 G 12 86° 22% - - 43° 89.7° 59.7° - - -
5/23 12:10pm 234 8 G 13 87° 24% - - 45° 89.7° 59.7° - - -
5/23 12:00pm 248 6 G 11 87° 22% - - 44° 89.7° 59.7° - - -
5/23 11:50am 234 7 G 12 87° 22% - - 43° 89.7° 59.7° - - -
5/23 11:40am 249 7 G 11 87° 20% - - 41° 89.7° 59.7° - - -
5/23 11:30am 232 7 G 13 87° 20% - - 41° 89.7° 59.7° - - -
5/23 11:20am 236 8 G 13 88° 19% - - 40° 89.7° 59.7° - - -
5/23 11:10am 221 6 G 12 88° 18% - - 39° 89.7° 59.7° - - -
5/23 11:00am 207 3 G 7 88° 19% - - 40° 89.7° 59.7° - - -
5/23 10:50am 239 4 G 8 88° 18% - - 39° 88.8° 59.7° - - -
5/23 10:40am 290 2 G 4 88° 16% - - 37° 88.8° 59.7° - - -
5/23 10:30am 245 3 G 5 87° 16% - - 36° 87.5° 59.7° - - -
5/23 10:20am 13 2 G 4 86° 16% - - 35° 87.3° 59.7° - - -
5/23 10:10am 325 2 G 5 85° 15% - - 33° 85.9° 59.7° - - -
5/23 10:00am 298 2 G 5 85° 16% - - 34° 85.8° 59.7° - - -
5/23 9:50am 308 1 G 3 85° 17% - - 35° 85.5° 59.7° - - -
5/23 9:40am 243 1 G 4 83° 18% - - 35° 83.8° 59.7° - - -
5/23 9:30am 260 2 G 3 82° 18% - - 34° 82.6° 59.7° - - -
5/23 9:20am 285 1 G 3 81° 21% - - 37° 81.8° 59.7° - - -
5/23 9:10am 272 2 G 2 79° 24% - - 39° 80.1° 59.7° - - -
5/23 9:00am 263 1 G 2 79° 26% - - 41° 79.4° 59.7° - - -
5/23 8:50am 12 1 G 2 78° 29% - - 43° 79.1° 59.7° - - -
5/23 8:40am 218 1 G 1 75° 35% - - 46° 76° 59.7° - - -
5/23 8:30am 324 0 G 1 75° 36% - - 46° 75.7° 59.7° - - -
5/23 8:20am 7 0 G 1 74° 36% - - 45° 74.9° 59.7° - - -
5/23 8:10am 89 1 G 3 71° 37% - - 43° 72.6° 59.7° - - -
5/23 8:00am 87 2 G 4 69° 40% - - 44° 69.9° 59.7° - - -
5/23 7:50am 95 2 G 4 67° 35% - - 39° 68° 59.7° - - -
5/23 7:40am 84 1 G 2 68° 34% - - 38° 68° 59.7° - - -
5/23 7:30am 67 0 G 1 68° 33% - - 38° 68° 59.7° - - -
5/23 7:20am 309 0 G 1 66° 35% - - 37° 66.9° 59.7° - - -
5/23 7:10am 297 1 G 1 65° 34% - - 36° 65.8° 59.7° - - -
5/23 7:00am 336 1 G 2 65° 33% - - 35° 65.8° 59.7° - - -
5/23 6:50am 343 1 G 3 64° 36% - - 36° 64.8° 59.7° - - -
5/23 6:40am 19 1 G 4 64° 38% - - 37° 64.8° 59.7° - - -
5/23 6:30am 78 3 G 5 63° 38% - - 37° 64.8° 59.7° - - -
5/23 6:20am 55 0 G 3 60° 40% - - 36° 64.8° 59.7° - - -
5/23 6:10am 358 1 G 2 60° 40% - - 36° 64.8° 59.7° - - -
5/23 6:00am 3 1 G 3 61° 40% - - 36° 64.8° 60° - - -